Darstellungsparameter: Aktuell verwendete Einstellungen:
Skalierung der Graphiken ... ?
xyx+y,   Skalierungsfaktor:      Skalierung: Modus: x, Faktor: 1
Darstellungszeitraum ... ?
Vom - - bis: - -   Zeitraum: 05.11.2008 - 09.11.2008
Min/Max/Avg-Anzeige ... ?
Zeige MMA aktuell
Zeige MMA Monat
Zeige MMA alles
Zeige --A aktuell
Zeige --A Monat
Zeige --A alles
Keine MMA-Anzeige
MMA:
Average (ber die Originaldaten)
MMA-Basis: 17.04.2019 - 19.05.2019
Quicknavigation für Darstellung... ?
Tage:      1T, 2T, 3T, 5T -1T -2T -3T -5T +1T +2T +3T +5T
Wochen: 1W, 2W, 3W -1W -2W -3W +1W +2W +3W
Monate: 1M, 3M, 6M -1M -3M -6M +1M +3M +6M
Jahre:    1J, 3J, 5J, 10J -1J -3J -5J -10J +1J +3J +5J +10J
Nutze für die Darstellung ... ?
Originaldaten oder Mittelwerte auf ...
Stundenbasis Tagesbasis Wochenbasis
Monatsbasis Jahresbasis      Datenbasis: Original-Daten
Darstellen als:
Statistik (Auto) Statistik J:M      Darstellung:
Zur Graphik,    zurück zur Übersicht aller Sensoren.
 
Tabellarische Datenbersicht: ?
 
Sensor: Nr:Datum:Temp:Abs-Feuchte:Windchill:Wind:
Aussen-T/F 1 05-11-2008 00:01:31 8.7 C 8.04 g/m*3 8.7 C 0 km/h
2 05-11-2008 00:26:31 8.7 C 8.04 g/m*3 8.7 C 0 km/h
3 05-11-2008 00:51:31 8.6 C 7.99 g/m*3 8.6 C 0 km/h
4 05-11-2008 01:16:31 8.7 C 8.04 g/m*3 8.7 C 0 km/h
5 05-11-2008 01:41:31 8.8 C 7.92 g/m*3 8.8 C 0 km/h
6 05-11-2008 02:06:31 8.7 C 7.7 g/m*3 8.7 C 0 km/h
7 05-11-2008 02:31:31 8.5 C 7.6 g/m*3 8.5 C 0 km/h
8 05-11-2008 02:56:31 8.4 C 7.55 g/m*3 8.4 C 0 km/h
9 05-11-2008 03:21:31 8.3 C 7.5 g/m*3 8.3 C 0 km/h
10 05-11-2008 03:46:31 8.4 C 7.55 g/m*3 8.4 C 0 km/h
11 05-11-2008 04:11:31 8.2 C 7.37 g/m*3 8.2 C 0 km/h
12 05-11-2008 04:36:31 7.9 C 7.39 g/m*3 7.9 C 0 km/h
13 05-11-2008 05:01:31 8.2 C 7.45 g/m*3 8.2 C 0 km/h
14 05-11-2008 05:26:31 8.4 C 7.55 g/m*3 8.4 C 0 km/h
15 05-11-2008 05:51:31 8.4 C 7.55 g/m*3 8.4 C 0 km/h
16 05-11-2008 06:16:31 8.4 C 7.38 g/m*3 8.4 C 0 km/h
17 05-11-2008 06:41:31 8.5 C 7.34 g/m*3 8.5 C 0 km/h
18 05-11-2008 07:06:31 8.4 C 7.21 g/m*3 8.4 C 0 km/h
19 05-11-2008 07:31:32 8.4 C 7.21 g/m*3 8.4 C 0 km/h
20 05-11-2008 07:56:32 8.5 C 7.26 g/m*3 8.5 C 0 km/h
21 05-11-2008 08:21:32 8.7 C 7.35 g/m*3 8.7 C 0 km/h
22 05-11-2008 08:46:32 8.9 C 7.45 g/m*3 8.9 C 0 km/h
23 05-11-2008 09:11:32 9.2 C 7.5 g/m*3 9.2 C 0 km/h
24 05-11-2008 09:36:32 9.8 C 7.79 g/m*3 9.8 C 0 km/h
25 05-11-2008 10:01:32 10 C 7.42 g/m*3 10 C 0 km/h
Sensor: Nr:Datum:Temp:Abs-Feuchte:Windchill:Wind:
Aussen-T/F 26 05-11-2008 10:26:32 10.7 C 7.46 g/m*3 10.7 C 0 km/h
27 05-11-2008 10:51:32 10.7 C 7.46 g/m*3 10.7 C 0 km/h
28 05-11-2008 11:16:32 10.9 C 7.46 g/m*3 10.9 C 0 km/h
29 05-11-2008 11:41:32 11 C 7.51 g/m*3 11 C 0 km/h
30 05-11-2008 12:06:32 11.1 C 7.45 g/m*3 11.1 C 0 km/h
31 05-11-2008 12:31:32 11 C 7.41 g/m*3 11 C 0 km/h
32 05-11-2008 12:56:32 10.8 C 7.51 g/m*3 10.8 C 0 km/h
33 05-11-2008 13:21:32 11 C 7.61 g/m*3 11 C 0 km/h
34 05-11-2008 13:46:32 11.2 C 7.6 g/m*3 11.2 C 0 km/h
35 05-11-2008 14:11:32 11.2 C 7.7 g/m*3 11.2 C 0 km/h
36 05-11-2008 14:36:32 11.4 C 7.8 g/m*3 11.4 C 0 km/h
37 05-11-2008 15:01:32 11.5 C 7.64 g/m*3 11.5 C 0 km/h
38 05-11-2008 15:26:33 11.5 C 7.64 g/m*3 11.5 C 0 km/h
39 05-11-2008 15:51:33 11.4 C 7.7 g/m*3 11.4 C 0 km/h
40 05-11-2008 16:16:33 11.1 C 7.66 g/m*3 11.1 C 0 km/h
41 05-11-2008 16:41:33 10.9 C 7.76 g/m*3 10.9 C 0 km/h
42 05-11-2008 17:06:33 10.7 C 7.66 g/m*3 10.7 C 0 km/h
43 05-11-2008 17:31:33 10.5 C 7.66 g/m*3 10.5 C 0 km/h
44 05-11-2008 17:56:33 10.5 C 7.76 g/m*3 10.5 C 0 km/h
45 05-11-2008 18:21:33 10.4 C 7.81 g/m*3 10.4 C 0 km/h
46 05-11-2008 18:46:33 10.4 C 7.81 g/m*3 10.4 C 0 km/h
47 05-11-2008 19:11:33 10.4 C 7.9 g/m*3 10.4 C 0 km/h
48 05-11-2008 19:36:33 10.3 C 7.85 g/m*3 10.3 C 0 km/h
49 05-11-2008 20:01:33 10.3 C 7.85 g/m*3 10.3 C 0 km/h
50 05-11-2008 20:26:33 10.3 C 7.95 g/m*3 10.3 C 0 km/h
Sensor: Nr:Datum:Temp:Abs-Feuchte:Windchill:Wind:
Aussen-T/F 51 05-11-2008 20:51:33 10.2 C 7.9 g/m*3 10.2 C 0 km/h
52 05-11-2008 21:16:33 10.2 C 7.9 g/m*3 10.2 C 0 km/h
53 05-11-2008 21:41:33 10.2 C 7.9 g/m*3 10.2 C 0 km/h
54 05-11-2008 22:06:33 10.2 C 7.9 g/m*3 10.2 C 0 km/h
55 05-11-2008 22:31:33 10.2 C 7.99 g/m*3 10.2 C 0 km/h
56 05-11-2008 22:56:33 10.2 C 7.99 g/m*3 10.2 C 0 km/h
57 05-11-2008 23:21:34 10.2 C 7.99 g/m*3 10.2 C 0 km/h
58 05-11-2008 23:46:34 10 C 7.99 g/m*3 10 C 0 km/h
59 06-11-2008 00:11:34 10 C 7.99 g/m*3 10 C 0 km/h
60 06-11-2008 00:36:34 10 C 7.99 g/m*3 10 C 0 km/h
61 06-11-2008 01:01:34 10 C 7.99 g/m*3 10 C 0 km/h
62 06-11-2008 01:26:34 9.9 C 8.12 g/m*3 9.9 C 0 km/h
63 06-11-2008 01:51:34 9.8 C 8.07 g/m*3 9.8 C 0 km/h
64 06-11-2008 02:16:34 9.8 C 7.98 g/m*3 9.8 C 0 km/h
65 06-11-2008 02:41:34 9.7 C 7.84 g/m*3 9.7 C 0 km/h
66 06-11-2008 03:06:34 9.5 C 7.74 g/m*3 9.5 C 0 km/h
67 06-11-2008 03:31:34 9.3 C 7.73 g/m*3 9.3 C 0 km/h
68 06-11-2008 03:56:34 8.9 C 7.62 g/m*3 8.9 C 0 km/h
69 06-11-2008 04:21:34 8.5 C 7.43 g/m*3 8.5 C 0 km/h
70 06-11-2008 04:46:34 8.6 C 7.48 g/m*3 8.6 C 0 km/h
71 06-11-2008 05:11:34 8.9 C 7.71 g/m*3 8.9 C 0 km/h
72 06-11-2008 05:36:34 9 C 7.58 g/m*3 9 C 0 km/h
73 06-11-2008 06:01:34 9 C 7.58 g/m*3 9 C 0 km/h
74 06-11-2008 06:26:34 9.3 C 7.64 g/m*3 9.3 C 0 km/h
75 06-11-2008 06:51:34 9.3 C 7.46 g/m*3 9.3 C 0 km/h
Sensor: Nr:Datum:Temp:Abs-Feuchte:Windchill:Wind:
Aussen-T/F 76 06-11-2008 07:16:34 9.3 C 7.46 g/m*3 9.3 C 0 km/h
77 06-11-2008 07:41:35 9.1 C 7.36 g/m*3 9.1 C 0 km/h
78 06-11-2008 08:06:35 9.4 C 7.51 g/m*3 9.4 C 0 km/h
79 06-11-2008 08:31:35 9.7 C 7.56 g/m*3 9.7 C 0 km/h
80 06-11-2008 08:56:35 10 C 7.42 g/m*3 10 C 0 km/h
81 06-11-2008 09:21:35 10.3 C 7.47 g/m*3 10.3 C 0 km/h
82 06-11-2008 09:46:35 10.6 C 7.12 g/m*3 10.6 C 0 km/h
83 06-11-2008 10:11:35 11 C 7.01 g/m*3 11 C 0 km/h
84 06-11-2008 10:36:35 11.3 C 7.04 g/m*3 11.3 C 0 km/h
85 06-11-2008 11:01:35 12.1 C 7.18 g/m*3 12.1 C 0 km/h
86 06-11-2008 11:26:35 12.4 C 7.1 g/m*3 12.4 C 0 km/h
87 06-11-2008 11:51:35 12.2 C 6.91 g/m*3 12.2 C 0 km/h
88 06-11-2008 12:16:35 12.2 C 6.91 g/m*3 12.2 C 0 km/h
89 06-11-2008 12:41:35 12.1 C 6.97 g/m*3 12.1 C 0 km/h
90 06-11-2008 13:06:35 12.6 C 7.08 g/m*3 12.6 C 0 km/h
91 06-11-2008 13:31:35 12.7 C 7.01 g/m*3 12.7 C 0 km/h
92 06-11-2008 13:56:35 12.4 C 7.1 g/m*3 12.4 C 0 km/h
93 06-11-2008 14:21:35 13 C 7.14 g/m*3 13 C 0 km/h
94 06-11-2008 14:46:35 13.1 C 6.96 g/m*3 13.1 C 0 km/h
95 06-11-2008 15:11:35 13 C 6.92 g/m*3 13 C 0 km/h
96 06-11-2008 15:36:36 12.6 C 6.97 g/m*3 12.6 C 0 km/h
97 06-11-2008 16:01:36 12.4 C 6.99 g/m*3 12.4 C 0 km/h
98 06-11-2008 16:26:36 11.8 C 6.95 g/m*3 11.8 C 0 km/h
99 06-11-2008 16:51:36 11.4 C 6.98 g/m*3 11.4 C 0 km/h
100 06-11-2008 17:16:36 11.1 C 6.95 g/m*3 11.1 C 0 km/h
Sensor: Nr:Datum:Temp:Abs-Feuchte:Windchill:Wind:
Aussen-T/F 101 06-11-2008 17:41:36 10.9 C 7.06 g/m*3 10.9 C 0 km/h
102 06-11-2008 18:06:36 10.1 C 6.9 g/m*3 10.1 C 0 km/h
103 06-11-2008 18:31:36 10.1 C 7 g/m*3 10.1 C 0 km/h
104 06-11-2008 18:56:36 10.2 C 7.04 g/m*3 10.2 C 0 km/h
105 06-11-2008 19:21:36 10.4 C 7.13 g/m*3 10.4 C 0 km/h
106 06-11-2008 19:46:36 10.3 C 7.09 g/m*3 10.3 C 0 km/h
107 06-11-2008 20:11:36 10.2 C 7.14 g/m*3 10.2 C 0 km/h
108 06-11-2008 20:36:36 10.3 C 7.28 g/m*3 10.3 C 0 km/h
109 06-11-2008 21:01:36 10.2 C 7.23 g/m*3 10.2 C 0 km/h
110 06-11-2008 21:26:36 10.4 C 7.23 g/m*3 10.4 C 0 km/h
111 06-11-2008 21:51:36 10.3 C 7.18 g/m*3 10.3 C 0 km/h
112 06-11-2008 22:16:36 10.2 C 7.33 g/m*3 10.2 C 0 km/h
113 06-11-2008 22:41:36 10.2 C 7.33 g/m*3 10.2 C 0 km/h
114 06-11-2008 23:06:36 10.1 C 7.28 g/m*3 10.1 C 0 km/h
115 06-11-2008 23:31:37 10.2 C 7.23 g/m*3 10.2 C 0 km/h
116 06-11-2008 23:56:37 10.2 C 7.23 g/m*3 10.2 C 0 km/h
117 07-11-2008 00:21:37 10.1 C 7.19 g/m*3 10.1 C 0 km/h
118 07-11-2008 00:46:37 10.1 C 7.19 g/m*3 10.1 C 0 km/h
119 07-11-2008 01:11:37 10 C 7.24 g/m*3 10 C 0 km/h
120 07-11-2008 01:36:37 10 C 7.24 g/m*3 10 C 0 km/h
121 07-11-2008 02:01:37 10 C 7.14 g/m*3 10 C 0 km/h
122 07-11-2008 02:26:37 10 C 7.14 g/m*3 10 C 0 km/h
123 07-11-2008 02:51:37 9.9 C 7.28 g/m*3 9.9 C 0 km/h
124 07-11-2008 03:16:37 9.9 C 7.19 g/m*3 9.9 C 0 km/h
125 07-11-2008 03:41:37 10 C 7.14 g/m*3 10 C 0 km/h
Sensor: Nr:Datum:Temp:Abs-Feuchte:Windchill:Wind:
Aussen-T/F 126 07-11-2008 04:06:37 10.2 C 7.14 g/m*3 10.2 C 0 km/h
127 07-11-2008 04:31:37 10.1 C 7.19 g/m*3 10.1 C 0 km/h
128 07-11-2008 04:56:37 10.3 C 7.28 g/m*3 10.3 C 0 km/h
129 07-11-2008 05:21:37 10.3 C 7.28 g/m*3 10.3 C 0 km/h
130 07-11-2008 05:46:37 10.2 C 7.23 g/m*3 10.2 C 0 km/h
131 07-11-2008 06:11:37 10.1 C 7.19 g/m*3 10.1 C 0 km/h
132 07-11-2008 06:36:37 10 C 7.14 g/m*3 10 C 0 km/h
133 07-11-2008 07:01:37 10.1 C 7.09 g/m*3 10.1 C 0 km/h
134 07-11-2008 07:26:38 10.1 C 7 g/m*3 10.1 C 0 km/h
135 07-11-2008 07:51:38 9.8 C 7.05 g/m*3 9.8 C 0 km/h
136 07-11-2008 08:16:38 9.6 C 7.15 g/m*3 9.6 C 0 km/h
137 07-11-2008 08:41:38 10.3 C 6.99 g/m*3 10.3 C 0 km/h
138 07-11-2008 09:06:38 10.8 C 7.02 g/m*3 10.8 C 0 km/h
139 07-11-2008 09:31:38 11 C 6.91 g/m*3 11 C 0 km/h
140 07-11-2008 09:56:38 11.1 C 6.95 g/m*3 11.1 C 0 km/h
141 07-11-2008 10:21:38 11.3 C 7.04 g/m*3 11.3 C 0 km/h
142 07-11-2008 10:46:38 11.2 C 6.89 g/m*3 11.2 C 0 km/h
143 07-11-2008 11:11:38 11.6 C 6.96 g/m*3 11.6 C 0 km/h
144 07-11-2008 11:36:38 12.2 C 6.91 g/m*3 12.2 C 0 km/h
145 07-11-2008 12:01:38 12.7 C 6.9 g/m*3 12.7 C 0 km/h
146 07-11-2008 12:26:38 13.1 C 6.85 g/m*3 13.1 C 0 km/h
147 07-11-2008 12:51:38 13.2 C 6.77 g/m*3 13.2 C 0 km/h
148 07-11-2008 13:16:38 13.8 C 6.91 g/m*3 13.8 C 0 km/h
149 07-11-2008 13:41:38 13.6 C 6.71 g/m*3 13.6 C 0 km/h
150 07-11-2008 14:06:38 13.8 C 7.03 g/m*3 13.8 C 0 km/h
Sensor: Nr:Datum:Temp:Abs-Feuchte:Windchill:Wind:
Aussen-T/F 151 07-11-2008 14:31:38 14.5 C 7.09 g/m*3 14.5 C 0 km/h
152 07-11-2008 14:56:38 14 C 7 g/m*3 14 C 0 km/h
153 07-11-2008 15:21:38 13.8 C 7.27 g/m*3 13.8 C 0 km/h
154 07-11-2008 15:46:39 13.5 C 7.37 g/m*3 13.5 C 0 km/h
155 07-11-2008 16:11:39 13.1 C 7.3 g/m*3 13.1 C 0 km/h
156 07-11-2008 16:36:39 12.7 C 7.57 g/m*3 12.7 C 0 km/h
157 07-11-2008 17:01:39 12.4 C 7.43 g/m*3 12.4 C 0 km/h
158 07-11-2008 17:26:39 11.8 C 7.26 g/m*3 11.8 C 0 km/h
159 07-11-2008 17:51:39 11.1 C 7.15 g/m*3 11.1 C 0 km/h
160 07-11-2008 18:16:39 10.4 C 7.23 g/m*3 10.4 C 0 km/h
161 07-11-2008 18:41:39 10.4 C 7.42 g/m*3 10.4 C 0 km/h
162 07-11-2008 19:06:39 10.7 C 7.56 g/m*3 10.7 C 0 km/h
163 07-11-2008 19:31:39 10.6 C 7.32 g/m*3 10.6 C 0 km/h
164 07-11-2008 19:56:39 10 C 7.33 g/m*3 10 C 0 km/h
165 07-11-2008 20:21:39 9.9 C 7.56 g/m*3 9.9 C 0 km/h
166 07-11-2008 20:46:39 9.5 C 7.37 g/m*3 9.5 C 0 km/h
167 07-11-2008 21:11:39 9.1 C 7.36 g/m*3 9.1 C 0 km/h
168 07-11-2008 21:36:39 8.7 C 7.44 g/m*3 8.7 C 0 km/h
169 07-11-2008 22:01:39 8.4 C 7.38 g/m*3 8.4 C 0 km/h
170 07-11-2008 22:26:39 7.9 C 7.31 g/m*3 7.9 C 0 km/h
171 07-11-2008 22:51:39 7.5 C 7.12 g/m*3 7.5 C 0 km/h
172 07-11-2008 23:16:39 7.3 C 7.03 g/m*3 7.3 C 0 km/h
173 07-11-2008 23:41:40 7.3 C 7.11 g/m*3 7.3 C 0 km/h
174 08-11-2008 00:06:40 7.3 C 7.19 g/m*3 7.3 C 0 km/h
175 08-11-2008 00:31:40 6.9 C 7.08 g/m*3 6.9 C 0 km/h
Sensor: Nr:Datum:Temp:Abs-Feuchte:Windchill:Wind:
Aussen-T/F 176 08-11-2008 00:56:40 7.1 C 7.18 g/m*3 7.1 C 0 km/h
177 08-11-2008 01:21:40 7 C 7.13 g/m*3 7 C 0 km/h
178 08-11-2008 01:46:40 7.2 C 7.3 g/m*3 7.2 C 0 km/h
179 08-11-2008 02:11:40 7.3 C 7.35 g/m*3 7.3 C 0 km/h
180 08-11-2008 02:36:40 7.5 C 7.44 g/m*3 7.5 C 0 km/h
181 08-11-2008 03:01:40 7.8 C 7.59 g/m*3 7.8 C 0 km/h
182 08-11-2008 03:26:40 7.9 C 7.56 g/m*3 7.9 C 0 km/h
183 08-11-2008 03:51:40 8.1 C 7.57 g/m*3 8.1 C 0 km/h
184 08-11-2008 04:16:40 8.2 C 7.62 g/m*3 8.2 C 0 km/h
185 08-11-2008 04:41:40 8.3 C 7.67 g/m*3 8.3 C 0 km/h
186 08-11-2008 05:06:40 8.3 C 7.59 g/m*3 8.3 C 0 km/h
187 08-11-2008 05:31:40 8 C 7.44 g/m*3 8 C 0 km/h
188 08-11-2008 05:56:40 8.6 C 7.82 g/m*3 8.6 C 0 km/h
189 08-11-2008 06:21:40 8.6 C 7.65 g/m*3 8.6 C 0 km/h
190 08-11-2008 06:46:40 8.5 C 7.6 g/m*3 8.5 C 0 km/h
191 08-11-2008 07:11:40 8.5 C 7.77 g/m*3 8.5 C 0 km/h
192 08-11-2008 07:36:41 8 C 7.52 g/m*3 8 C 0 km/h
193 08-11-2008 08:01:41 7.9 C 7.64 g/m*3 7.9 C 0 km/h
194 08-11-2008 08:26:41 7.3 C 7.27 g/m*3 7.3 C 0 km/h
195 08-11-2008 08:51:41 7.2 C 7.3 g/m*3 7.2 C 0 km/h
196 08-11-2008 09:16:41 7.6 C 7.57 g/m*3 7.6 C 0 km/h
197 08-11-2008 09:41:41 8.2 C 7.87 g/m*3 8.2 C 0 km/h
198 08-11-2008 10:06:41 8.7 C 8.13 g/m*3 8.7 C 0 km/h
199 08-11-2008 10:31:41 8.9 C 7.88 g/m*3 8.9 C 0 km/h
200 08-11-2008 10:56:41 9.3 C 7.28 g/m*3 9.3 C 0 km/h
Sensor: Nr:Datum:Temp:Abs-Feuchte:Windchill:Wind:
Aussen-T/F 201 08-11-2008 11:21:41 9.7 C 6.36 g/m*3 9.7 C 0 km/h
202 08-11-2008 11:46:41 10.3 C 6.03 g/m*3 10.3 C 0 km/h
203 08-11-2008 12:11:41 10.9 C 5.97 g/m*3 10.9 C 0 km/h
204 08-11-2008 12:36:41 11.7 C 5.86 g/m*3 11.7 C 0 km/h
205 08-11-2008 13:01:41 12.2 C 5.4 g/m*3 12.2 C 0 km/h
206 08-11-2008 13:26:41 12.4 C 5.14 g/m*3 12.4 C 0 km/h
207 08-11-2008 13:51:01 12 C 5.33 g/m*3 12 C 0 km/h
208 08-11-2008 14:16:01 11.9 C 5.51 g/m*3 11.9 C 0 km/h
209 08-11-2008 14:41:01 12 C 5.44 g/m*3 12 C 0 km/h
210 08-11-2008 15:06:02 11.8 C 5.79 g/m*3 11.8 C 0 km/h
211 08-11-2008 15:31:02 12 C 5.86 g/m*3 12 C 0 km/h
212 08-11-2008 15:56:02 11.2 C 5.98 g/m*3 11.2 C 0 km/h
213 08-11-2008 16:21:02 10.2 C 5.8 g/m*3 10.2 C 0 km/h
214 08-11-2008 16:46:02 9.5 C 6.01 g/m*3 9.5 C 0 km/h
215 08-11-2008 17:11:02 8.8 C 6.09 g/m*3 8.8 C 0 km/h
216 08-11-2008 17:36:02 8.2 C 6.03 g/m*3 8.2 C 0 km/h
217 08-11-2008 18:01:02 7.7 C 6.08 g/m*3 7.7 C 0 km/h
218 08-11-2008 18:26:01 7.4 C 6.04 g/m*3 7.4 C 0 km/h
219 08-11-2008 18:51:01 7.2 C 6.12 g/m*3 7.2 C 0 km/h
220 08-11-2008 19:16:02 6.8 C 6.12 g/m*3 6.8 C 0 km/h
221 08-11-2008 19:41:02 6.5 C 6.15 g/m*3 6.5 C 0 km/h
222 08-11-2008 20:06:02 6.1 C 5.99 g/m*3 6.1 C 0 km/h
223 08-11-2008 20:31:02 5.8 C 6.02 g/m*3 5.8 C 0 km/h
224 08-11-2008 20:56:02 5.6 C 6.08 g/m*3 5.6 C 0 km/h
225 08-11-2008 21:21:02 5.3 C 5.96 g/m*3 5.3 C 0 km/h
Sensor: Nr:Datum:Temp:Abs-Feuchte:Windchill:Wind:
Aussen-T/F 226 08-11-2008 21:46:02 5.2 C 6.06 g/m*3 5.2 C 0 km/h
227 08-11-2008 22:11:03 5.1 C 6.02 g/m*3 5.1 C 0 km/h
228 08-11-2008 22:36:03 4.7 C 6 g/m*3 4.7 C 0 km/h
229 08-11-2008 23:01:02 4.9 C 6.14 g/m*3 4.9 C 0 km/h
230 08-11-2008 23:26:02 5.3 C 6.38 g/m*3 5.3 C 0 km/h
231 08-11-2008 23:50:02 5.8 C 6.66 g/m*3 5.8 C 0 km/h
232 09-11-2008 00:02:03 6.4 C 6.85 g/m*3 6.4 C 0 km/h
233 09-11-2008 00:14:03 6.7 C 6.84 g/m*3 6.7 C 0 km/h
234 09-11-2008 00:26:03 6.7 C 6.76 g/m*3 6.7 C 0 km/h
235 09-11-2008 00:38:03 7 C 6.74 g/m*3 7 C 0 km/h
236 09-11-2008 00:50:02 7 C 6.59 g/m*3 7 C 0 km/h
237 09-11-2008 01:02:03 6.6 C 6.42 g/m*3 6.6 C 0 km/h
238 09-11-2008 01:14:03 6.7 C 6.53 g/m*3 6.7 C 0 km/h
239 09-11-2008 01:26:02 6.5 C 6.37 g/m*3 6.5 C 0 km/h
240 09-11-2008 01:38:03 6.5 C 6.45 g/m*3 6.5 C 0 km/h
241 09-11-2008 01:50:02 6.4 C 6.41 g/m*3 6.4 C 0 km/h
242 09-11-2008 02:02:01 7.1 C 6.63 g/m*3 7.1 C 0 km/h
243 09-11-2008 02:14:01 7.5 C 6.56 g/m*3 7.5 C 0 km/h
244 09-11-2008 02:26:02 7.3 C 6.4 g/m*3 7.3 C 0 km/h
245 09-11-2008 02:38:01 7.6 C 6.53 g/m*3 7.6 C 0 km/h
246 09-11-2008 02:50:01 7.5 C 6.32 g/m*3 7.5 C 0 km/h
247 09-11-2008 03:02:01 7.7 C 6.49 g/m*3 7.7 C 0 km/h
248 09-11-2008 03:14:02 8 C 6.45 g/m*3 8 C 0 km/h
249 09-11-2008 03:26:02 8 C 6.45 g/m*3 8 C 0 km/h
250 09-11-2008 03:38:01 8.2 C 6.53 g/m*3 8.2 C 0 km/h
Sensor: Nr:Datum:Temp:Abs-Feuchte:Windchill:Wind:
Aussen-T/F 251 09-11-2008 03:50:01 8.8 C 6.61 g/m*3 8.8 C 0 km/h
252 09-11-2008 04:02:01 9.3 C 6.56 g/m*3 9.3 C 0 km/h
253 09-11-2008 04:14:01 9.4 C 6.51 g/m*3 9.4 C 0 km/h
254 09-11-2008 04:26:01 9.6 C 6.5 g/m*3 9.6 C 0 km/h
255 09-11-2008 04:38:01 9.3 C 6.47 g/m*3 9.3 C 0 km/h
256 09-11-2008 04:50:02 9.3 C 6.56 g/m*3 9.3 C 0 km/h
257 09-11-2008 05:02:01 9.2 C 6.52 g/m*3 9.2 C 0 km/h
258 09-11-2008 05:14:01 9.6 C 6.6 g/m*3 9.6 C 0 km/h
259 09-11-2008 05:26:02 9.7 C 6.64 g/m*3 9.7 C 0 km/h
260 09-11-2008 05:38:01 9.7 C 6.64 g/m*3 9.7 C 0 km/h
261 09-11-2008 05:50:02 9.6 C 6.6 g/m*3 9.6 C 0 km/h
262 09-11-2008 06:02:01 9.6 C 6.69 g/m*3 9.6 C 0 km/h
263 09-11-2008 06:14:01 9.6 C 6.6 g/m*3 9.6 C 0 km/h
264 09-11-2008 06:26:02 9.8 C 6.68 g/m*3 9.8 C 0 km/h
265 09-11-2008 06:38:01 9.7 C 6.64 g/m*3 9.7 C 0 km/h
266 09-11-2008 06:50:02 9.7 C 6.64 g/m*3 9.7 C 0 km/h
267 09-11-2008 07:02:01 9.9 C 6.82 g/m*3 9.9 C 0 km/h
268 09-11-2008 07:14:01 10 C 6.77 g/m*3 10 C 0 km/h
269 09-11-2008 07:26:02 9.8 C 6.87 g/m*3 9.8 C 0 km/h
270 09-11-2008 07:38:01 9.4 C 7.15 g/m*3 9.4 C 0 km/h
271 09-11-2008 07:50:01 9.2 C 7.41 g/m*3 9.2 C 0 km/h
272 09-11-2008 08:02:01 9.3 C 7.64 g/m*3 9.3 C 0 km/h
273 09-11-2008 08:14:01 9.1 C 7.72 g/m*3 9.1 C 0 km/h
274 09-11-2008 08:26:01 9.3 C 7.82 g/m*3 9.3 C 0 km/h
275 09-11-2008 08:38:01 9.4 C 7.96 g/m*3 9.4 C 0 km/h
Sensor: Nr:Datum:Temp:Abs-Feuchte:Windchill:Wind:
Aussen-T/F 276 09-11-2008 08:50:01 9.4 C 7.96 g/m*3 9.4 C 0 km/h
277 09-11-2008 09:02:02 9.6 C 8.15 g/m*3 9.6 C 0 km/h
278 09-11-2008 09:14:02 9.6 C 8.15 g/m*3 9.6 C 0 km/h
279 09-11-2008 09:26:01 9.7 C 8.2 g/m*3 9.7 C 0 km/h
280 09-11-2008 09:38:01 9.7 C 8.2 g/m*3 9.7 C 0 km/h
281 09-11-2008 09:50:01 9.8 C 8.35 g/m*3 9.8 C 0 km/h
282 09-11-2008 10:02:02 9.7 C 8.3 g/m*3 9.7 C 0 km/h
283 09-11-2008 10:14:02 9.7 C 8.3 g/m*3 9.7 C 0 km/h
284 09-11-2008 10:26:01 9.7 C 8.39 g/m*3 9.7 C 0 km/h
285 09-11-2008 10:38:02 9.8 C 8.44 g/m*3 9.8 C 0 km/h
286 09-11-2008 10:50:01 9.8 C 8.54 g/m*3 9.8 C 0 km/h
287 09-11-2008 11:02:02 9.8 C 8.54 g/m*3 9.8 C 0 km/h
288 09-11-2008 11:14:02 9.9 C 8.59 g/m*3 9.9 C 0 km/h
289 09-11-2008 11:26:01 10.1 C 8.7 g/m*3 10.1 C 0 km/h
290 09-11-2008 11:38:02 10.3 C 8.81 g/m*3 10.3 C 0 km/h
291 09-11-2008 11:50:02 10.3 C 8.81 g/m*3 10.3 C 0 km/h
292 09-11-2008 12:02:02 10.4 C 8.87 g/m*3 10.4 C 0 km/h
293 09-11-2008 12:14:02 10.7 C 9.04 g/m*3 10.7 C 0 km/h
294 09-11-2008 12:26:02 11 C 9.11 g/m*3 11 C 0 km/h
295 09-11-2008 12:38:02 10.8 C 8.99 g/m*3 10.8 C 0 km/h
296 09-11-2008 12:50:02 10.9 C 9.05 g/m*3 10.9 C 0 km/h
297 09-11-2008 13:02:02 10.6 C 8.69 g/m*3 10.6 C 0 km/h
298 09-11-2008 13:14:02 10.5 C 8.44 g/m*3 10.5 C 0 km/h
299 09-11-2008 13:26:02 10.6 C 8.39 g/m*3 10.6 C 0 km/h
300 09-11-2008 13:38:02 10.3 C 8.24 g/m*3 10.3 C 0 km/h
Sensor: Nr:Datum:Temp:Abs-Feuchte:Windchill:Wind:
Aussen-T/F 301 09-11-2008 13:50:02 9.8 C 7.61 g/m*3 9.8 C 0 km/h
302 09-11-2008 14:02:02 9.5 C 7.1 g/m*3 9.5 C 0 km/h
303 09-11-2008 14:14:02 9.7 C 7.19 g/m*3 9.7 C 0 km/h
304 09-11-2008 14:26:01 9.5 C 7.28 g/m*3 9.5 C 0 km/h
305 09-11-2008 14:38:02 9.6 C 7.51 g/m*3 9.6 C 0 km/h
306 09-11-2008 14:50:01 9.7 C 7.56 g/m*3 9.7 C 0 km/h
307 09-11-2008 15:02:01 9.8 C 7.24 g/m*3 9.8 C 0 km/h
308 09-11-2008 15:14:01 10.1 C 6.9 g/m*3 10.1 C 0 km/h
309 09-11-2008 15:26:02 10 C 6.95 g/m*3 10 C 0 km/h
310 09-11-2008 15:38:02 10.1 C 6.9 g/m*3 10.1 C 0 km/h
311 09-11-2008 15:50:01 9.9 C 7 g/m*3 9.9 C 0 km/h
312 09-11-2008 16:02:03 9.8 C 7.14 g/m*3 9.8 C 0 km/h
313 09-11-2008 16:14:03 9.6 C 7.15 g/m*3 9.6 C 0 km/h
314 09-11-2008 16:26:01 9.4 C 7.15 g/m*3 9.4 C 0 km/h
315 09-11-2008 16:38:02 9.2 C 7.23 g/m*3 9.2 C 0 km/h
316 09-11-2008 16:50:02 9.1 C 7.19 g/m*3 9.1 C 0 km/h
317 09-11-2008 17:02:02 9.1 C 7.19 g/m*3 9.1 C 0 km/h
318 09-11-2008 17:14:02 9 C 7.14 g/m*3 9 C 0 km/h
319 09-11-2008 17:26:02 8.8 C 7.22 g/m*3 8.8 C 0 km/h
320 09-11-2008 17:38:03 8.7 C 7.26 g/m*3 8.7 C 0 km/h
321 09-11-2008 17:50:02 8.7 C 7.26 g/m*3 8.7 C 0 km/h
322 09-11-2008 18:02:02 8.6 C 7.22 g/m*3 8.6 C 0 km/h
323 09-11-2008 18:14:02 8.5 C 7 g/m*3 8.5 C 0 km/h
324 09-11-2008 18:26:02 8.1 C 6.82 g/m*3 8.1 C 0 km/h
325 09-11-2008 18:38:02 7.9 C 6.82 g/m*3 7.9 C 0 km/h
Sensor: Nr:Datum:Temp:Abs-Feuchte:Windchill:Wind:
Aussen-T/F 326 09-11-2008 18:50:01 7.8 C 6.77 g/m*3 7.8 C 0 km/h
327 09-11-2008 19:02:02 7.6 C 6.69 g/m*3 7.6 C 0 km/h
328 09-11-2008 19:14:02 7.4 C 6.68 g/m*3 7.4 C 0 km/h
329 09-11-2008 19:26:03 7.4 C 6.76 g/m*3 7.4 C 0 km/h
330 09-11-2008 19:38:03 7.3 C 6.72 g/m*3 7.3 C 0 km/h
331 09-11-2008 19:50:02 7.4 C 6.84 g/m*3 7.4 C 0 km/h
332 09-11-2008 20:02:02 7.5 C 6.8 g/m*3 7.5 C 0 km/h
333 09-11-2008 20:14:02 7.4 C 6.76 g/m*3 7.4 C 0 km/h
334 09-11-2008 20:26:01 7.6 C 6.93 g/m*3 7.6 C 0 km/h
335 09-11-2008 20:38:02 7.4 C 6.76 g/m*3 7.4 C 0 km/h
336 09-11-2008 20:50:02 7.4 C 6.92 g/m*3 7.4 C 0 km/h
337 09-11-2008 21:02:01 7.6 C 7.01 g/m*3 7.6 C 0 km/h
338 09-11-2008 21:14:01 7.7 C 7.14 g/m*3 7.7 C 0 km/h
339 09-11-2008 21:26:02 7.9 C 7.23 g/m*3 7.9 C 0 km/h
340 09-11-2008 21:38:01 7.9 C 7.23 g/m*3 7.9 C 0 km/h
341 09-11-2008 21:50:02 7.9 C 7.31 g/m*3 7.9 C 0 km/h
342 09-11-2008 22:02:01 7.9 C 7.31 g/m*3 7.9 C 0 km/h
343 09-11-2008 22:14:01 7.8 C 7.35 g/m*3 7.8 C 0 km/h
344 09-11-2008 22:26:02 8 C 7.44 g/m*3 8 C 0 km/h
345 09-11-2008 22:38:01 8.3 C 7.67 g/m*3 8.3 C 0 km/h
346 09-11-2008 22:50:01 8.5 C 7.77 g/m*3 8.5 C 0 km/h
347 09-11-2008 23:02:01 8.5 C 7.77 g/m*3 8.5 C 0 km/h
348 09-11-2008 23:14:01 8.9 C 8.06 g/m*3 8.9 C 0 km/h
349 09-11-2008 23:26:01 9.3 C 8.27 g/m*3 9.3 C 0 km/h
350 09-11-2008 23:38:01 10.1 C 8.7 g/m*3 10.1 C 0 km/h
Sensor: Nr:Datum:Temp:Abs-Feuchte:Windchill:Wind:
Aussen-T/F 351 09-11-2008 23:50:01 11.4 C 9.34 g/m*3 11.4 C 0 km/h

Legende:
   Min
   Max


Maximal/Minimal-Werte vom 17.04.2019 - 19.05.2019

Sensor Min Max Avg
Temp
(Aussen-T/F)
2.2 °C
13-05-2019  06:50:00
26.6 °C
24-04-2019  17:05:00
11.51 °C

Die Daten stammen von einer Davis Vantage Pro 2 Wetter-Station und werden unter Linux mit der Software wview2wettercgi und aufbereitet. Alle Angaben erfolgen ohne Gewähr für ihre Vollständigkeit oder Richtigkeit.
Kontakt: Rainer Krienke krienke@uni-koblenz.de . Meine Webseiten an der Uni Koblenz oder privat.
Version: $Revision: 0.78 $